Airfield :
LOGIN :

Register | Disclaimer

   EN    FR    IT 

 










Legend :    VFR   Marginal VFR   IFR   Intensive IFR   Very Intensive IFR
Visi :
Ceiling :
>= 8 km
>= 3000ft
5 to 8 km
1000 to 3000 ft
1500m to 5 km
500 to 1000 ft
800 to 1500m
200 to 500 ft
< 800m
< 200 ft
Symbols :   Thunderstorms  Fog  Heavy snow  Heavy precipitations  Wind > 20 kt
SIGMETs :     Misc.  Thunderstorms  Icing  Turbulence  Mountain Waves  Volcanic Ashes







- Airport Elevation : 209 ft
- IATA code : CLY
- Download approach charts


LFKC - Calvi

CURRENT METAR :
  • 262230Z AUTO 01015KT CAVOK 11/M00 Q1018

EXPIRED METARs :
  • 262200Z AUTO 02013KT CAVOK 11/M01 Q1017
  • 262130Z AUTO 02012KT CAVOK 11/M02 Q1018
  • 262100Z AUTO 04011KT 360V080 CAVOK 12/M03 Q1017
  • 262030Z AUTO 06016KT CAVOK 12/M03 Q1017
  • 262000Z AUTO 05013KT 010V080 9999 FEW082 12/M02 Q1017

TAF TAF LFKC
Valid from the 26 at 15:00 until the 27 at 15:00 UTC


261400Z 2615/2715 04015G25KT 9999 SCT040 BKN070 TX17/2712Z TN06/2705Z
BECMG 2617/2619 04012KT CAVOK
BECMG 2709/2711 02017G30KT
ATIS : +33 4 95 65 82 49
No reported NOTAMs for that airfield.
3 SIGMETs reported for the Marseille FIR (LFMM) :
 
Severe turbulence
LFMM SIGMET 21 VALID 262000/270000 LFPW
LFMM MARSEILLE FIR/UIR SEV TURB FCST WI N4115 E00930 - N4115 E00900 - N4300 E00830 - N4315 E00930 - N4115 E00930 SFC/FL090 STNR WKN=
Severe turbulence
LFMM SIGMET 20 VALID 262000/270000 LFPW
LFMM MARSEILLE FIR/UIR SEV TURB FCST WI N4345 E00300 - N4500 E00315 - N4530 E00445 - N4400 E00515 - N4345 E00300 SFC/FL080 STNR WKN=
Severe turbulence
LFMM SIGMET 19 VALID 262000/270000 LFPW
LFMM MARSEILLE FIR/UIR SEV TURB FCST S OF LINE N4030 E00800 - N4000 E00430 FL140/260 MOV S 10KT NC=



MET'MAP, your aeronautical weather chart ! - Copyright ORBIFLY December 2007 - Disclaimer

ORBIFLY MET'MAP TEAM :

Programming & Development : Alexandra Zaïnal
Concept & Development : Baudouin d'Aumeries
Co-Development & Prog : Marc-Olivier Méhu
Technical & hardware support : Manuel Goepfert

Contact : metmap@orbifly.com




SOURCES & CREDITS :

   NOAA